Time;durP1;ratioP1;P1;durP2;ratioP2;P2;SDS_P1;SDS_P2;PMS_P1;PMS_P2;Temp;Humidity;BMP_temperature;BMP_pressure;BME280_temperature;BME280_humidity;BME280_pressure;Samples;Min_cycle;Max_cycle;Signal;HPM_P1;HPM_P2
2023/04/24 04:39:03;;;;;;;;;;;;;;;6.54;100.00;100124.30;109630;1285;23076;-47
2023/04/24 04:41:53;;;;;;;;;;;;;;;6.76;100.00;100125.28;109542;1285;22470;-48
2023/04/24 04:44:23;;;;;;;;;;;;;;;6.93;100.00;100125.34;109468;1281;23158;-47
2023/04/24 04:46:53;;;;;;;;;;;;;;;7.06;100.00;100125.30;109468;1278;22463;-57
2023/04/24 04:49:28;;;;;;;;;;;;;;;7.17;100.00;100127.69;109494;1286;23140;-57
2023/04/24 04:51:55;;;;;;;;;;;;;;;7.27;100.00;100124.15;109464;1285;22458;-58
2023/04/24 04:54:22;;;;;;;;;;;;;;;7.38;100.00;100120.44;109472;1285;22480;-57
2023/04/24 05:08:09;;;;;;;13.70;5.60;;;;;;;8.21;100.00;100117.49;106012;1296;558587;-57
2023/04/24 05:10:54;;;;;;;30.90;16.60;;;;;;;8.49;100.00;100120.83;107770;1285;370731;-47
2023/04/24 05:13:24;;;;;;;10.90;6.50;;;;;;;8.54;100.00;100117.91;108417;1288;22729;-56
2023/04/24 05:16:10;;;;;;;15.20;5.20;;;;;;;8.63;100.00;100117.25;109002;1282;22533;-48
2023/04/24 05:18:38;;;;;;;12.40;4.10;;;;;;;8.72;100.00;100117.48;108448;1282;23027;-48
2023/04/24 05:21:07;;;;;;;9.30;4.90;;;;;;;8.81;100.00;100120.29;108825;1285;22550;-48
2023/04/24 05:23:41;;;;;;;6.90;4.60;;;;;;;8.87;100.00;100122.23;108670;1283;22809;-56
2023/04/24 05:26:17;;;;;;;11.40;5.60;;;;;;;8.97;100.00;100121.05;108430;1282;22526;-48
2023/04/24 05:29:15;;;;;;;11.30;5.80;;;;;;;9.02;100.00;100120.20;108447;1282;23532;-48
2023/04/24 05:40:05;;;;;;;8.50;5.60;;;;;;;9.14;100.00;100119.20;107899;1283;23906;-48
2023/04/24 05:43:17;;;;;;;10.40;5.50;;;;;;;9.25;100.00;100118.71;108578;1285;22644;-57
2023/04/24 05:46:40;;;;;;;11.60;6.40;;;;;;;9.41;100.00;100119.09;108331;1284;22602;-59
2023/04/24 05:50:08;;;;;;;10.30;6.50;;;;;;;9.57;100.00;100119.11;107746;1283;22853;-47
2023/04/24 05:53:10;;;;;;;16.70;6.00;;;;;;;9.75;100.00;100119.84;108453;1291;23161;-56
2023/04/24 05:55:44;;;;;;;6.90;5.40;;;;;;;9.88;100.00;100115.13;108425;1283;22922;-56
2023/04/24 05:58:30;;;;;;;11.00;6.10;;;;;;;10.01;100.00;100118.44;108375;1285;22395;-48
2023/04/24 06:01:27;;;;;;;8.70;5.70;;;;;;;10.15;100.00;100117.38;107760;1284;24244;-47
2023/04/24 06:04:15;;;;;;;11.90;6.30;;;;;;;10.23;99.40;100120.18;107469;1283;22180;-57
2023/04/24 06:06:55;;;;;;;12.50;6.90;;;;;;;10.23;98.98;100121.05;107858;1285;22542;-57
2023/04/24 06:09:27;;;;;;;12.50;7.50;;;;;;;10.26;99.40;100121.41;107898;1279;22543;-56
2023/04/24 06:12:17;;;;;;;15.80;8.00;;;;;;;10.32;99.26;100128.36;108059;1279;22644;-56
2023/04/24 06:15:43;;;;;;;19.20;10.40;;;;;;;10.42;99.00;100124.87;108256;1272;23235;-48
2023/04/24 06:18:38;;;;;;;22.40;11.00;;;;;;;10.55;99.34;100127.27;108970;1272;23275;-57
2023/04/24 06:22:10;;;;;;;29.70;12.40;;;;;;;10.71;99.26;100130.55;109264;1272;22399;-48
2023/04/24 06:24:48;;;;;;;21.90;12.00;;;;;;;10.84;98.71;100133.12;108710;1272;22433;-47
2023/04/24 06:27:21;;;;;;;16.20;11.40;;;;;;;10.96;98.59;100129.06;109557;1270;23478;-47
2023/04/24 06:30:08;;;;;;;18.60;13.10;;;;;;;11.08;97.65;100129.36;108601;1271;23303;-47
2023/04/24 06:33:23;;;;;;;19.00;11.80;;;;;;;11.22;96.75;100130.33;109004;1271;22525;-47
2023/04/24 06:35:54;;;;;;;25.80;14.10;;;;;;;11.29;95.94;100133.78;109497;1273;22461;-57
2023/04/24 06:38:22;;;;;;;25.50;12.60;;;;;;;11.32;95.75;100132.90;109039;1272;22539;-48
2023/04/24 06:40:49;;;;;;;30.30;14.70;;;;;;;11.37;96.66;100130.42;108755;1272;22531;-47
2023/04/24 06:43:23;;;;;;;26.70;12.00;;;;;;;11.45;96.33;100125.84;109151;1270;23298;-57
2023/04/24 06:46:10;;;;;;;29.60;12.20;;;;;;;11.57;95.63;100124.89;108895;1270;22412;-57
2023/04/24 06:49:01;;;;;;;19.60;11.50;;;;;;;11.71;95.43;100126.36;109071;1276;22228;-56
2023/04/24 06:55:16;;;;;;;27.20;10.30;;;;;;;11.97;93.23;100123.39;109911;1270;22439;-47
2023/04/24 06:57:44;;;;;;;16.10;10.40;;;;;;;12.06;92.33;100122.79;109552;1272;22458;-47
2023/04/24 07:00:12;;;;;;;18.10;11.00;;;;;;;12.19;91.99;100119.70;109833;1272;22315;-57
2023/04/24 07:03:11;;;;;;;25.30;11.70;;;;;;;12.30;90.33;100113.83;109301;1272;22351;-47
2023/04/24 07:06:22;;;;;;;21.50;11.80;;;;;;;12.37;90.67;100117.08;108600;1270;22474;-57
2023/04/24 07:13:44;;;;;;;28.60;11.50;;;;;;;12.71;89.18;100111.27;109577;1276;22434;-48
2023/04/24 07:17:06;;;;;;;32.20;11.50;;;;;;;12.97;88.89;100114.30;109637;1272;22552;-57
2023/04/24 07:20:25;;;;;;;16.40;9.70;;;;;;;13.21;87.41;100112.42;108393;1270;23764;-57
2023/04/24 07:23:54;;;;;;;19.00;11.40;;;;;;;13.41;85.54;100111.80;109122;1273;22285;-59
2023/04/24 07:26:37;;;;;;;19.30;10.00;;;;;;;13.63;83.56;100108.67;109550;1275;23267;-58
2023/04/24 07:29:04;;;;;;;18.20;10.10;;;;;;;13.78;82.13;100104.05;109817;1272;22390;-48
2023/04/24 07:35:16;;;;;;;18.70;9.60;;;;;;;14.09;79.46;100104.58;109042;1270;22506;-48
2023/04/24 07:38:09;;;;;;;20.30;9.60;;;;;;;14.21;78.55;100102.09;109520;1275;22261;-46
2023/04/24 07:40:36;;;;;;;20.00;10.30;;;;;;;14.29;77.81;100104.75;109958;1270;22874;-57
2023/04/24 07:43:03;;;;;;;16.70;9.90;;;;;;;14.39;77.35;100104.05;108880;1272;23458;-49
2023/04/24 07:45:31;;;;;;;23.70;9.90;;;;;;;14.55;76.60;100102.55;109100;1272;22577;-49
2023/04/24 07:47:58;;;;;;;21.80;10.40;;;;;;;14.76;75.70;100100.38;109413;1270;23060;-48
2023/04/24 07:50:30;;;;;;;37.20;11.80;;;;;;;14.97;74.44;100101.88;109869;1270;22217;-47
2023/04/24 07:53:02;;;;;;;17.70;10.30;;;;;;;15.20;72.96;100100.69;109524;1273;22631;-51
2023/04/24 07:55:30;;;;;;;21.10;10.00;;;;;;;15.37;70.19;100099.08;108874;1272;24283;-56
2023/04/24 07:57:58;;;;;;;23.80;9.80;;;;;;;15.53;70.33;100096.40;109571;1277;22523;-58
2023/04/24 08:00:32;;;;;;;24.50;10.20;;;;;;;15.81;69.37;100095.05;108889;1272;24222;-49
2023/04/24 08:03:04;;;;;;;23.50;8.90;;;;;;;16.09;68.46;100095.08;108538;1270;22501;-48
2023/04/24 08:05:42;;;;;;;16.80;8.70;;;;;;;16.28;67.26;100093.71;109081;1277;22668;-57
2023/04/24 08:08:56;;;;;;;16.20;8.90;;;;;;;16.41;66.31;100095.64;108972;1270;25291;-48
2023/04/24 08:16:40;;;;;;;18.10;7.50;;;;;;;16.85;63.54;100090.55;108641;1273;22455;-48
2023/04/24 08:20:01;;;;;;;11.90;6.90;;;;;;;16.84;62.04;100089.35;108654;1254;22536;-56
2023/04/24 08:23:22;;;;;;;8.10;6.00;;;;;;;16.77;63.27;100085.86;108351;1270;22963;-58
2023/04/24 08:26:00;;;;;;;13.00;6.10;;;;;;;16.86;62.55;100085.06;108687;1272;22415;-48
2023/04/24 08:28:44;;;;;;;9.60;6.00;;;;;;;16.94;61.64;100087.98;108672;1276;22852;-57
2023/04/24 08:34:48;;;;;;;10.40;5.20;;;;;;;17.06;59.17;100080.98;108948;1273;22536;-48
2023/04/24 08:37:36;;;;;;;9.00;4.60;;;;;;;17.12;58.87;100079.19;108515;1277;22665;-57
2023/04/24 08:40:16;;;;;;;8.50;5.20;;;;;;;17.11;57.63;100076.77;108574;1272;23199;-49
2023/04/24 08:42:56;;;;;;;11.40;4.90;;;;;;;17.10;57.38;100076.77;109365;1270;22594;-48
2023/04/24 08:45:39;;;;;;;10.80;4.10;;;;;;;17.14;55.96;100067.33;108795;1272;23003;-48
2023/04/24 08:48:15;;;;;;;7.90;4.30;;;;;;;17.17;54.59;100063.71;109133;1272;23555;-48
2023/04/24 08:50:57;;;;;;;11.90;3.30;;;;;;;17.20;53.12;100061.86;109396;1273;23667;-58
2023/04/24 08:53:26;;;;;;;7.20;4.10;;;;;;;17.18;52.29;100059.27;109191;1276;22464;-48
2023/04/24 08:55:55;;;;;;;5.30;3.70;;;;;;;17.14;52.60;100057.80;109654;1272;22229;-47
2023/04/24 08:58:24;;;;;;;7.10;3.40;;;;;;;17.12;52.71;100055.59;109924;1273;22431;-49
2023/04/24 09:00:52;;;;;;;7.90;3.40;;;;;;;17.14;52.92;100054.11;109663;1271;22821;-58
2023/04/24 09:03:19;;;;;;;8.80;3.70;;;;;;;17.13;51.86;100051.16;109554;1275;23209;-58
2023/04/24 09:05:47;;;;;;;8.20;3.20;;;;;;;17.11;51.01;100048.41;109580;1274;23471;-55
2023/04/24 09:08:19;;;;;;;5.70;2.80;;;;;;;17.11;50.77;100046.11;109470;1277;22499;-50
2023/04/24 09:10:51;;;;;;;7.80;3.10;;;;;;;17.16;49.90;100041.35;108615;1276;22557;-58
2023/04/24 09:13:20;;;;;;;10.00;3.20;;;;;;;17.25;49.43;100037.70;109000;1275;22817;-47
2023/04/24 09:15:49;;;;;;;9.80;3.00;;;;;;;17.37;49.48;100034.70;108630;1272;22928;-57
2023/04/24 09:18:17;;;;;;;3.90;2.80;;;;;;;17.56;49.50;100029.33;109070;1273;22430;-61
2023/04/24 09:21:07;;;;;;;6.50;3.00;;;;;;;17.78;48.19;100025.98;109206;1271;22439;-48
2023/04/24 09:23:45;;;;;;;5.90;2.60;;;;;;;18.01;46.62;100022.20;109534;1270;22406;-48
2023/04/24 09:26:14;;;;;;;7.90;2.60;;;;;;;18.15;45.10;100017.11;109202;1274;22544;-59
2023/04/24 09:28:45;;;;;;;4.40;2.50;;;;;;;18.28;44.49;100016.65;109151;1274;26232;-50
2023/04/24 09:31:21;;;;;;;5.80;3.10;;;;;;;18.37;43.08;100015.95;108345;1273;24177;-48
2023/04/24 09:34:27;;;;;;;7.60;3.10;;;;;;;18.52;42.28;100011.20;109499;1275;22539;-56
2023/04/24 09:37:35;;;;;;;;;;;;;;;18.81;40.61;100006.77;109410;1275;23375;-58
2023/04/24 09:40:19;;;;;;;3.80;2.70;;;;;;;19.01;40.93;99999.11;108592;1270;22408;-56
2023/04/24 09:42:52;;;;;;;3.20;2.50;;;;;;;19.18;40.49;99996.30;109488;1273;22593;-61
2023/04/24 09:45:19;;;;;;;;;;;;;;;19.25;40.35;99996.02;110015;1272;22481;-60
2023/04/24 09:47:53;;;;;;;7.50;2.50;;;;;;;19.23;39.90;99988.48;109952;1274;22404;-58
2023/04/24 09:50:22;;;;;;;6.40;2.60;;;;;;;19.19;40.05;99983.16;109662;1273;22664;-57
2023/04/24 09:53:10;;;;;;;4.70;2.70;;;;;;;19.16;40.32;99985.24;109754;1275;22447;-56
2023/04/24 09:55:44;;;;;;;4.10;2.60;;;;;;;19.10;40.57;99979.64;109720;1272;22320;-59
2023/04/24 09:58:11;;;;;;;7.20;2.10;;;;;;;19.08;41.32;99979.35;109677;1272;23017;-59
2023/04/24 10:00:38;;;;;;;9.90;2.70;;;;;;;19.16;41.84;99971.11;109843;1272;22163;-57
2023/04/24 10:03:05;;;;;;;5.00;2.80;;;;;;;19.23;40.82;99971.16;109804;1272;22371;-49
2023/04/24 10:05:36;;;;;;;5.80;2.70;;;;;;;19.33;39.69;99963.16;109846;1277;23441;-56
2023/04/24 10:08:08;;;;;;;9.80;3.10;;;;;;;19.44;38.91;99963.23;109901;1276;22282;-56
2023/04/24 10:10:43;;;;;;;7.60;2.90;;;;;;;19.55;37.88;99967.38;109995;1273;22373;-57
2023/04/24 10:13:11;;;;;;;9.80;2.70;;;;;;;19.63;36.78;99963.52;109794;1272;22498;-59
2023/04/24 10:15:40;;;;;;;5.50;2.60;;;;;;;19.71;35.81;99960.90;109867;1273;23332;-60
2023/04/24 10:18:08;;;;;;;4.50;2.30;;;;;;;19.81;34.71;99959.02;109160;1272;22228;-47
2023/04/24 10:20:37;;;;;;;5.60;2.50;;;;;;;19.99;34.98;99958.95;109449;1270;23196;-57
2023/04/24 10:23:05;;;;;;;17.20;2.40;;;;;;;20.21;34.99;99957.11;109789;1277;22812;-48
2023/04/24 10:25:34;;;;;;;9.60;2.80;;;;;;;20.43;33.73;99953.08;109733;1272;22263;-58
2023/04/24 10:28:02;;;;;;;5.60;2.40;;;;;;;20.58;31.98;99953.81;109674;1272;22733;-59
2023/04/24 10:30:34;;;;;;;4.70;1.90;;;;;;;20.68;31.27;99951.77;109368;1275;22441;-49
2023/04/24 10:33:06;;;;;;;7.10;2.40;;;;;;;20.77;30.60;99947.44;109025;1273;22437;-58
2023/04/24 10:35:43;;;;;;;3.80;2.00;;;;;;;20.88;30.56;99945.15;109348;1278;22705;-48
2023/04/24 10:38:13;;;;;;;4.60;2.00;;;;;;;21.07;29.17;99944.39;109780;1278;22392;-47
2023/04/24 10:40:40;;;;;;;5.20;2.10;;;;;;;21.28;28.88;99945.49;109769;1278;23335;-58
2023/04/24 10:43:17;;;;;;;5.50;2.20;;;;;;;21.55;29.04;99937.29;109523;1278;22417;-58
2023/04/24 10:46:01;;;;;;;6.90;2.20;;;;;;;21.93;28.77;99934.23;109301;1276;23042;-47
2023/04/24 10:48:28;;;;;;;4.50;1.90;;;;;;;22.26;27.69;99930.21;109726;1276;22346;-47
2023/04/24 10:50:56;;;;;;;4.10;2.70;;;;;;;22.40;26.89;99925.52;109443;1278;22412;-47
2023/04/24 10:53:26;;;;;;;5.60;3.10;;;;;;;22.45;26.88;99922.54;109533;1273;22238;-49
2023/04/24 10:56:09;;;;;;;3.50;2.30;;;;;;;22.73;26.91;99919.96;109684;1278;23246;-48
2023/04/24 10:58:46;;;;;;;5.90;2.10;;;;;;;23.31;26.77;99919.68;109923;1278;22556;-57
2023/04/24 11:01:29;;;;;;;11.00;2.30;;;;;;;24.00;25.73;99917.52;109889;1270;22385;-59
2023/04/24 11:04:02;;;;;;;6.20;2.10;;;;;;;24.52;25.25;99912.51;109672;1278;22899;-59
2023/04/24 11:06:35;;;;;;;2.50;1.70;;;;;;;24.99;25.49;99910.34;109867;1272;22224;-49
2023/04/24 11:09:07;;;;;;;2.90;1.80;;;;;;;25.51;23.81;99908.88;109288;1279;23547;-47
2023/04/24 11:11:37;;;;;;;3.10;2.00;;;;;;;25.85;22.59;99908.90;109863;1277;22549;-48
2023/04/24 11:14:08;;;;;;;7.40;2.30;;;;;;;26.14;22.38;99903.63;109816;1273;22887;-59
2023/04/24 11:16:38;;;;;;;4.00;2.00;;;;;;;26.49;22.34;99899.38;109759;1278;23065;-58
2023/04/24 11:19:16;;;;;;;9.50;2.40;;;;;;;26.83;22.80;99896.19;109875;1278;22307;-50
2023/04/24 11:22:04;;;;;;;5.80;2.20;;;;;;;27.00;23.25;99893.98;109848;1278;22282;-48
2023/04/24 11:24:47;;;;;;;3.80;2.30;;;;;;;26.79;22.19;99894.48;109879;1279;22722;-48
2023/04/24 11:27:21;;;;;;;5.80;2.10;;;;;;;26.39;22.70;99891.64;109914;1278;22146;-47
2023/04/24 11:29:59;;;;;;;3.80;2.70;;;;;;;25.97;22.13;99896.63;109984;1277;22044;-47
2023/04/24 11:32:29;;;;;;;5.30;1.80;;;;;;;25.26;22.79;99894.28;109897;1278;22856;-48
2023/04/24 11:35:30;;;;;;;6.40;3.30;;;;;;;24.65;23.87;99895.98;109867;1263;22267;-58
2023/04/24 11:37:58;;;;;;;6.80;2.30;;;;;;;24.06;24.36;99893.48;109434;1278;22333;-58
2023/04/24 11:40:28;;;;;;;9.70;2.90;;;;;;;23.49;25.78;99897.10;109388;1284;22320;-49
2023/04/24 11:42:55;;;;;;;7.10;2.80;;;;;;;22.87;26.31;99896.79;109369;1283;23257;-48
2023/04/24 11:45:24;;;;;;;4.20;2.70;;;;;;;22.26;27.23;99900.86;109363;1284;22943;-58
2023/04/24 11:47:51;;;;;;;5.50;2.60;;;;;;;21.81;27.53;99898.83;109405;1281;23334;-47
2023/04/24 11:50:20;;;;;;;3.90;2.40;;;;;;;21.47;27.75;99902.35;109528;1284;22688;-48
2023/04/24 11:52:48;;;;;;;6.20;2.30;;;;;;;21.20;27.77;99897.11;109515;1280;22470;-47
2023/04/24 11:55:15;;;;;;;2.90;2.30;;;;;;;21.14;29.31;99896.70;109534;1284;22384;-47
2023/04/24 11:57:49;;;;;;;7.70;2.90;;;;;;;21.17;29.89;99897.45;109590;1284;22542;-59
2023/04/24 12:00:18;;;;;;;4.10;2.50;;;;;;;21.08;31.11;99903.56;109602;1284;22444;-47
2023/04/24 12:02:46;;;;;;;7.50;2.50;;;;;;;20.86;30.84;99897.73;109697;1276;22332;-58
2023/04/24 12:05:20;;;;;;;6.60;2.40;;;;;;;20.66;31.41;99897.98;108500;1284;24779;-47
2023/04/24 12:07:48;;;;;;;3.00;2.30;;;;;;;20.52;31.03;99895.14;107872;1278;24295;-48
2023/04/24 12:10:26;;;;;;;3.80;2.60;;;;;;;20.39;30.97;99894.29;109054;1281;22421;-48
2023/04/24 12:12:54;;;;;;;4.50;2.90;;;;;;;20.27;31.16;99893.76;109773;1278;22457;-49
2023/04/24 12:15:21;;;;;;;7.70;3.70;;;;;;;20.24;31.32;99887.55;109968;1277;22474;-47
2023/04/24 12:17:50;;;;;;;6.70;2.70;;;;;;;20.26;31.17;99886.39;109840;1273;22435;-58
2023/04/24 12:20:30;;;;;;;3.40;2.30;;;;;;;20.28;30.94;99878.48;109915;1275;22972;-47
